Tiempo atmosférico en la estación meteorológica de Vigo Aeropuerto, Pontevedra (261 m.)



Fecha
DESCASC
Temp. máxima en grados centígrados (hora)
DESCASC
Temp. mínima en grados centígrados (hora)
DESCASC
Temp. media en grados centígrados
DESCASC
Racha de viento máxima en m/sg (hora)
DESCASC
Velocidad máxima media en intervalos de 10 minutos(hora)
DESCASC
Precipitaciones diarias en mm
DESCASC
Precipitaciones de 00:00 a 06:00 en mm
DESCASC
Precipitaciones de 06:00 a 12:00 en mm
DESCASC
Precipitaciones de 12:00 a 18:00 en mm
DESCASC
Precipitaciones de 18:00 a 24:00 en mm
DESCASC
06-07-2020 32.4 (14:50) 15.8 (07:20) 24.1 8.89 (18:40) 6.11 (17:10) 0 0 0 0 0
05-07-2020 33 (15:30) 17.7 (07:20) 25.4 10.83 (22:50) 7.22 (22:20) 0 0 0 0 0
04-07-2020 27.8 (14:30) 11.7 (06:10) 19.7 8.89 (16:10) 6.94 (16:10) 0 0 0 0 0
03-07-2020 24.1 (14:30) 9.9 (04:40) 17 9.17 (16:40) 6.39 (16:00) 0 0 0 0 0
02-07-2020 21.7 (14:30) 14.2 (00:00) 18 10.83 (22:20) 7.22 (21:50) 0 0 0 0 0
01-07-2020 22 (18:00) 15.8 (00:00) 18.9 8.89 (12:40) 6.67 (12:50) 0 0 0 0 0
30-06-2020 29.3 (14:40) 16.2 (00:00) 22.8 10.83 (17:40) 8.06 (17:50) 0 0 0 0 0
29-06-2020 26.3 (17:50) 14.2 (00:00) 20.2 11.67 (21:50) 7.78 (21:50) 0 0 0 0 0
28-06-2020 22.3 (18:10) 14.6 (00:00) 18.4 5.83 (17:10) 3.89 (22:50) 0 0 0 0 0
27-06-2020 18.8 (18:40) 15.5 (00:00) 17.1 7.22 (10:10) 4.44 (18:00) 5.3 1.9 1.7 1.4 0.3
26-06-2020 21.4 (14:20) 13.6 (00:00) 17.5 7.22 (12:20) 4.72 (12:30) 1.4 0 0 0 1.4
25-06-2020 19.5 (16:10) 14.8 (00:00) 17.2 9.17 (18:30) 6.39 (18:40) 0 0 0 0 0
24-06-2020 19.3 (16:40) 15.4 (00:00) 17.3 8.89 (22:20) 5 (19:30) 0 0 0 0 0
23-06-2020 30.2 (13:00) 16.6 (00:00) 23.4 9.72 (16:30) 7.5 (16:30) 0 0 0 0 0
22-06-2020 30.3 (17:50) 14.4 (00:00) 22.3 7.22 (16:30) 4.44 (16:40) 0 0 0 0 0
21-06-2020 22.2 (17:20) 15.6 (00:00) 18.9 6.67 (17:20) 4.72 (17:00) 0.8 0 0.8 0 0
20-06-2020 21.2 (16:30) 13.1 (00:00) 17.2 10.28 (16:40) 6.39 (17:30) 0 0 0 0 0
19-06-2020 20.1 (15:30) 10.3 (00:00) 15.2 8.89 (15:40) 5.83 (17:40) 0 0 0 0 0
18-06-2020 20.3 (12:20) 10.5 (07:10) 15.4 9.72 (14:40) 6.39 (15:20) 0 0 0 0 0
17-06-2020 19.2 (15:50) 12.2 (00:00) 15.7 9.17 (21:20) 5.83 (18:00) 0 0 0 0 0
16-06-2020 19 (17:50) 13.1 (00:00) 16.1 8.89 (15:00) 6.11 (15:10) 4.2 0.7 3.5 0 0
15-06-2020 18.9 (13:10) 12.9 (00:00) 15.9 8.89 (13:20) 5 (17:10) 0 0 0 0 0
14-06-2020 17.6 (16:00) 12.1 (00:00) 14.9 9.17 (15:50) 5.83 (16:00) 0.1 0 0.1 0 0
13-06-2020 17.6 (14:00) 11.4 (00:00) 14.5 10.28 (16:00) 6.67 (17:30) 1.7 0 1.7 0 0
12-06-2020 14.8 (13:40) 11.6 (00:00) 13.2 15.28 (04:20) 7.22 (04:20) 11.7 1.4 3.3 3.6 3.4
11-06-2020 17 (15:10) 11.5 (00:00) 14.3 15.28 (16:50) 8.61 (15:50) 6.9 1.3 3 0 2.6
10-06-2020 21.7 (15:30) 9.8 (00:00) 15.8 10.83 (18:40) 7.78 (19:00) 0 0 0 0 0

Gráficas

Temp. máximas Temp. mínimas Temp. medias Precipitaciones Rachas de viento máximas Velocidades máximas media en intervalos de 10 minutos

Datos horarios

Fecha y hora oficial Temperatura (ºC) Velocidad del viento (km/h) Dirección del viento Racha (km/h) Dirección de racha Precipitación (mm) Presión (hPa) Tendencia (hPa) Humedad (%)
2020-07-09 23:00:00 21.1 25 Norte 35 Norte 0 988.1 1.2 48
2020-07-09 22:00:00 22.4 22 Norte 39 Norte 0 987.7 -- 48
2020-07-09 21:00:00 25 19 Norte 35 Noroeste 0 987.5 -- 41
2020-07-09 20:00:00 26.9 26 Norte 41 Norte 0 986.9 -- 44
2020-07-09 19:00:00 28.8 21 Norte 35 Norte 0 986.8 -- 43
2020-07-09 18:00:00 29.4 22 Norte 39 Norte 0 987.1 -- 40
2020-07-09 17:00:00 30.1 20 Noroeste 39 Norte 0 987.4 -- 37
2020-07-09 16:00:00 29.8 22 Norte 39 Norte 0 987.5 -- 35
2020-07-09 15:00:00 29.2 21 Norte 33 Norte 0 987.7 -- 37
2020-07-09 14:00:00 28.6 13 Norte 26 Nordeste 0 987.8 -- 45
2020-07-09 13:00:00 26.9 12 Nordeste 24 Nordeste 0 987.9 -- 52
2020-07-09 12:00:00 25.3 12 Nordeste 21 Nordeste 0 987.7 -- 58
2020-07-09 11:00:00 24 11 Nordeste 17 Nordeste 0 987.8 -- 65
2020-07-09 10:00:00 21.8 5 Este 11 Este 0 987.4 -- 73
2020-07-09 09:00:00 18.6 6 Nordeste 13 Nordeste 0 986.8 -- 92
2020-07-09 08:00:00 16.2 6 Norte 18 Norte 0 986.3 -- 100
2020-07-09 07:00:00 16.5 15 Norte 24 Norte 0 986.1 -- 99
2020-07-09 06:00:00 16.9 9 Norte 11 Norte 0 985.7 -- 100
2020-07-09 05:00:00 17.6 6 Sudoeste 8 Sudoeste 0 985.4 -- 100
2020-07-09 04:00:00 17.8 0 Calma 8 Norte 0 985.4 -- 100
2020-07-09 03:00:00 18.6 3 Este 11 Norte 0 985.3 -- 96
2020-07-09 02:00:00 18.4 9 Nordeste 22 Norte 0 985.3 -- 100
2020-07-09 01:00:00 19 15 Norte 24 Norte 0 985 -- 99
2020-07-09 00:00:00 20.1 10 Norte 18 Norte 0 984.3 -- 91
2020-07-08 23:00:00 21.7 9 Oeste 13 Oeste 0 983.6 -- 81
2020-07-08 22:00:00 21.9 10 Norte 17 Norte 0 983.5 -- 80
2020-07-08 21:00:00 23.4 9 Norte 15 Norte 0 983.2 -- 74
2020-07-08 20:00:00 25.1 5 Nordeste 24 Oeste 0 982.5 -- 67
2020-07-08 19:00:00 24.2 17 Oeste 26 Oeste 0 982.9 -- 67
2020-07-08 18:00:00 24.5 18 Oeste 30 Sudoeste 0 983.3 -- 66
2020-07-08 17:00:00 24.8 20 Oeste 28 Oeste 0 983.5 -- 66
2020-07-08 16:00:00 24.3 21 Sudoeste 30 Sudoeste 0 983.8 -- 66
2020-07-08 15:00:00 23.9 19 Oeste 26 Sudoeste 0 983.9 -- 67
2020-07-08 14:00:00 23.8 17 Oeste 33 Oeste 0 984 -- 70
2020-07-08 13:00:00 24.1 7 Sur 15 Sur 0 983.9 -- 69
2020-07-08 12:00:00 23.7 7 Este 15 Sudeste 0 983.8 -- 72
2020-07-08 11:00:00 21.5 8 Este 15 Este 0 983.5 -- 84
2020-07-08 10:00:00 18.4 5 Nordeste 13 Nordeste 0 983.3 -- 100
2020-07-08 09:00:00 17.4 6 Nordeste 11 Nordeste 0 982.9 -- 100
2020-07-08 08:00:00 16.2 7 Norte 11 Norte 0 982.9 -- 100
2020-07-08 07:00:00 16.3 7 Norte 11 Norte 0 982.6 -- 100
2020-07-08 06:00:00 17 7 Norte 13 Norte 0 982.5 -- 100
2020-07-08 05:00:00 17.9 6 Norte 9 Noroeste 0 982.7 -- 100
2020-07-08 04:00:00 18.5 8 Norte 13 Norte 0 983 -- 99
2020-07-08 03:00:00 19.1 6 Norte 11 Norte 0 983.4 -- 94
2020-07-08 02:00:00 20.3 5 Norte 9 Norte 0 983.8 -- 85
2020-07-08 01:00:00 21 5 Norte 11 Noroeste 0 983.9 -- 83
2020-07-08 00:00:00 21.5 5 Norte 11 Sudoeste 0 983.9 -- 81
2020-07-07 23:00:00 22.5 4 Oeste 15 Oeste 0 983.7 -- 74
2020-07-07 22:00:00 24.2 10 Oeste 15 Oeste 0 983.4 -- 65
2020-07-07 21:00:00 27.1 8 Oeste 13 Oeste 0 983.3 -- 57
2020-07-07 20:00:00 28.3 5 Oeste 22 Oeste 0 983.3 -1.2 56
2020-07-07 19:00:00 28.3 15 Oeste 26 Sudoeste 0 983.7 -1.1 54
2020-07-07 18:00:00 28.9 17 Oeste 24 Oeste 0 984.1 -0.7 51
2020-07-07 17:00:00 28.9 17 Oeste 26 Oeste 0 984.5 -0.6 54
2020-07-07 16:00:00 29.2 17 Oeste 24 Oeste 0 984.8 -0.3 52
2020-07-07 15:00:00 30.5 9 Nordeste 15 Nordeste 0 984.8 -0.1 51
2020-07-07 14:00:00 29.4 6 Sudoeste 18 Oeste 0 985.1 0.2 51
2020-07-07 13:00:00 29 10 Sudoeste 17 Sudoeste 0 985.1 0.3 52
2020-07-07 12:00:00 26.2 8 Sur 17 Sur 0 984.9 0.3 58
2020-07-07 11:00:00 23.9 8 Sur 18 Sur 0 984.9 0.8 63
2020-07-07 10:00:00 21 12 Sur 18 Sur 0 984.8 0.6 72
2020-07-07 09:00:00 19.1 15 Sur 21 Sur 0 984.6 -- 80
2020-07-07 08:00:00 17.5 13 Sudoeste 26 Sur 0 984.1 -- 89
2020-07-07 07:00:00 17.1 18 Sur -- -- -- 984.2 -- 91
2020-07-07 06:00:00 -- -- -- -- -- -- -- -- --
2020-07-07 05:00:00 -- -- -- -- -- -- -- -- --
2020-07-07 04:00:00 19.2 15 Sur 30 Sur 0 984.6 -- 81
2020-07-07 03:00:00 19.9 14 Sur 24 Sur 0 985 -- 81
2020-07-07 02:00:00 20.4 3 Este 13 Este 0 985.4 -- 79
2020-07-07 01:00:00 19.5 3 Nordeste 9 Nordeste 0 985.6 -- 81
2020-07-07 00:00:00 20.6 6 Nordeste 22 Norte 0 985.7 -- 77
2020-07-06 23:00:00 22.3 17 Norte 22 Norte 0 985.5 -- 70
2020-07-06 22:00:00 24.4 14 Norte 21 Norte 0 985.5 -- 63
2020-07-06 21:00:00 27.1 13 Nordeste 24 Norte 0 985.5 -- 57
2020-07-06 20:00:00 29.9 17 Norte 30 Norte 0 985.8 -- 49
2020-07-06 19:00:00 30.8 21 Norte 32 Norte 0 986.1 -- 48
2020-07-06 18:00:00 31.2 19 Norte 30 Norte 0 986.6 -- 48
2020-07-06 17:00:00 31.3 15 Norte 26 Norte 0 987 -- 48
2020-07-06 16:00:00 31.6 12 Nordeste 24 Nordeste 0 987.4 -- 49
2020-07-06 15:00:00 31.7 10 Nordeste 18 Nordeste 0 987.9 -- 49
2020-07-06 14:00:00 29.6 8 Nordeste 21 Norte 0 988.4 -- 52
2020-07-06 13:00:00 27.9 9 Nordeste 18 Nordeste 0 988.7 -- 55
2020-07-06 12:00:00 26.2 9 Nordeste 17 Nordeste 0 988.9 -- 58
2020-07-06 11:00:00 24.3 8 Nordeste 13 Nordeste 0 989 -- 64
2020-07-06 10:00:00 23.2 8 Este 13 Este 0 988.8 -- 67
2020-07-06 09:00:00 20.7 6 Este 11 Este 0 989 -- 80
2020-07-06 08:00:00 17.8 5 Este 8 Este 0 988.8 -- 98
2020-07-06 07:00:00 16 6 Nordeste 15 Oeste 0 988.5 -- 100
2020-07-06 06:00:00 16.3 10 Nordeste 17 Nordeste 0 988.2 -- 100
2020-07-06 05:00:00 16.6 12 Norte 17 Nordeste 0 988.3 -- 100
2020-07-06 04:00:00 17.4 7 Nordeste 13 Norte 0 988.7 -- 100
2020-07-06 03:00:00 18.3 5 Nordeste 9 Nordeste 0 989.2 -- 96
2020-07-06 02:00:00 18.8 7 Nordeste 17 Norte 0 989.7 -- 97
2020-07-06 01:00:00 20.1 10 Norte 24 Norte 0 989.8 -- 92
2020-07-06 00:00:00 21.9 17 Norte 37 Norte 0 990 -- 83
2020-07-05 23:00:00 23.4 23 Norte 39 Norte 0 989.4 -- 79
2020-07-05 22:00:00 25.3 22 Norte 37 Norte 0 988.9 -- 70
2020-07-05 21:00:00 27.8 21 Norte 35 Norte 0 988.7 -- 60
2020-07-05 20:00:00 29.6 22 Norte 35 Norte 0 988.6 -- 53
2020-07-05 19:00:00 31.1 21 Norte 32 Norte 0 988.8 -- 48
2020-07-05 18:00:00 32.1 17 Norte 30 Norte 0 989.2 -- 47
2020-07-05 17:00:00 32.3 13 Nordeste 24 Nordeste 0 989.4 -- 50
2020-07-05 16:00:00 32.5 10 Norte 22 Norte 0 989.9 -- 50
2020-07-05 15:00:00 32.3 9 Nordeste 28 Sur 0 990.1 -- 49
2020-07-05 14:00:00 31.3 7 Nordeste 15 Este 0 990.5 -- 51
2020-07-05 13:00:00 30.3 9 Nordeste 17 Nordeste 0 990.5 -- 52
2020-07-05 12:00:00 28.1 6 Nordeste 13 Nordeste 0 990.5 -- 58
2020-07-05 11:00:00 26.4 6 Sudeste 13 Sur 0 990.7 -- 61
2020-07-05 10:00:00 23.7 5 Sur 15 Sur 0 990.6 -- 67
2020-07-05 09:00:00 21.5 8 Sur 13 Sur 0 990.6 -- 76
2020-07-05 08:00:00 19.3 3 Este 8 Nordeste 0 990.4 -- 95
2020-07-05 07:00:00 18.2 8 Norte 13 Norte 0 990.3 -- 98
2020-07-05 06:00:00 18.7 7 Norte 9 Norte 0 990.5 -- 95
2020-07-05 05:00:00 18.8 6 Norte 13 Norte 0 990.7 -- 93
2020-07-05 04:00:00 19.4 4 Norte 13 Norte 0 991.1 -- 87
2020-07-05 03:00:00 20.2 8 Nordeste 17 Norte 0 991.7 -- 79
2020-07-05 02:00:00 19.8 15 Norte 18 Norte 0 992 -- 84
2020-07-05 01:00:00 19.7 9 Nordeste 22 Norte 0 992.5 -- 89
2020-07-05 00:00:00 20.9 14 Norte 22 Norte 0 992.6 -- 81
2020-07-04 23:00:00 20.5 15 Norte 24 Norte 0 992.3 -- 93
2020-07-04 22:00:00 21.6 11 Norte 17 Norte 0 992 -- 88
2020-07-04 21:00:00 22.3 10 Oeste 22 Oeste 0 992.2 -- 81
2020-07-04 20:00:00 24.7 13 Oeste 28 Oeste 0 991.8 -- 67
2020-07-04 19:00:00 23.7 20 Oeste 32 Oeste 0 992.1 -- 69
2020-07-04 18:00:00 24.6 23 Oeste 32 Oeste 0 992.4 -- 64
2020-07-04 17:00:00 24.9 24 Oeste 32 Oeste 0 992.8 -- 60
2020-07-04 16:00:00 25.9 21 Oeste 30 Oeste 0 992.9 -- 56
2020-07-04 15:00:00 26.7 11 Oeste 21 Oeste 0 993.3 -- 47
2020-07-04 14:00:00 26.7 8 Nordeste 17 Nordeste 0 993.4 -- 44
2020-07-04 13:00:00 25.2 8 Nordeste 15 Norte 0 993.7 -- 45
2020-07-04 12:00:00 23.7 7 Este 15 Este 0 993.7 -- 44
2020-07-04 11:00:00 21.9 7 Nordeste 13 Norte 0 993.6 -- 48
2020-07-04 10:00:00 20.1 6 Este 13 Este 0 993.7 -- 55
2020-07-04 09:00:00 16.4 4 Este 8 Este 0 993.5 -- 80
2020-07-04 08:00:00 14 5 Nordeste 11 Norte 0 993.2 -- 93
2020-07-04 07:00:00 12.1 8 Norte 11 Norte 0 993 -- 100
2020-07-04 06:00:00 12 2 Norte 8 Sudeste 0 992.5 -- 100
2020-07-04 05:00:00 12.2 3 Oeste 13 Nordeste 0 992.6 -- 100
2020-07-04 04:00:00 12.8 6 Norte 11 Norte 0 992.9 -- 100
2020-07-04 03:00:00 13.5 9 Norte 11 Norte 0 993.1 -- 100
2020-07-04 02:00:00 14.4 5 Norte 13 Norte 0 993.2 -- 96
2020-07-04 01:00:00 15.1 8 Norte 18 Norte 0 993.6 -- 96
2020-07-04 00:00:00 16.1 12 Norte 18 Norte 0 993.3 -- 90
2020-07-03 23:00:00 17.8 14 Norte 28 Norte 0 992.9 -- 78
2020-07-03 22:00:00 19.6 14 Norte 21 Norte 0 992.6 -- 67
2020-07-03 21:00:00 20.5 12 Oeste 30 Oeste 0 992.2 -- 66
2020-07-03 20:00:00 21.6 17 Oeste 28 Oeste 0 992.1 -- 61
2020-07-03 19:00:00 22.5 17 Oeste 28 Oeste 0 992.1 -- 56
2020-07-03 18:00:00 22.5 14 Oeste 30 Oeste 0 992.1 -- 55
2020-07-03 17:00:00 21.5 23 Oeste 33 Oeste 0 992.6 -- 56
2020-07-03 16:00:00 22.2 23 Oeste 32 Oeste 0 992.7 -- 53
2020-07-03 15:00:00 22.6 13 Oeste 22 Norte 0 993 -- 51
2020-07-03 14:00:00 23.2 9 Nordeste 18 Nordeste 0 993.2 -- 50
2020-07-03 13:00:00 21.5 9 Nordeste 18 Nordeste 0 993.5 -- 55
2020-07-03 12:00:00 19.3 10 Nordeste 21 Nordeste 0 993.4 -- 60
2020-07-03 11:00:00 17.6 9 Nordeste 18 Nordeste 0 993.5 -- 67
2020-07-03 10:00:00 15.6 10 Nordeste 18 Nordeste 0 993.3 -- 73
2020-07-03 09:00:00 14 6 Nordeste 13 Nordeste 0 993.1 -- 80
2020-07-03 08:00:00 11.9 6 Nordeste 13 Norte 0 992.9 -- 91
2020-07-03 07:00:00 10.2 0 Calma 24 Norte 0 992.7 -- 96
2020-07-03 06:00:00 10.4 10 Nordeste 13 Nordeste 0 992.7 -- 100
2020-07-03 05:00:00 10.5 10 Nordeste 18 Norte 0 992.8 -- 100
2020-07-03 04:00:00 10.9 8 Nordeste 18 Norte 0 992.8 -- 98
2020-07-03 03:00:00 12.5 13 Norte 30 Norte 0 993.2 -- 85
2020-07-03 02:00:00 13.1 19 Norte 32 Norte 0 993.4 -- 79
2020-07-03 01:00:00 13.6 17 Norte 32 Nordeste 0 993.4 -- 78
2020-07-03 00:00:00 14.3 16 Nordeste 33 Norte 0 993.3 -- 77
2020-07-02 23:00:00 15.1 13 Nordeste 39 Norte 0 992.7 -- 72
2020-07-02 22:00:00 16.8 21 Norte 37 Norte 0 992.1 -- 63
2020-07-02 21:00:00 18.6 19 Norte 30 Norte 0 991.8 -- 57
2020-07-02 20:00:00 19.4 17 Noroeste 32 Noroeste 0 991.4 -- 59
2020-07-02 19:00:00 18.9 12 Noroeste 32 Noroeste 0 991.4 -- 64
2020-07-02 18:00:00 19.1 15 Noroeste 33 Noroeste 0 991.6 -- 62
2020-07-02 17:00:00 19.6 20 Oeste 32 Noroeste 0 991.5 -- 60
2020-07-02 16:00:00 20.2 17 Noroeste 32 Noroeste 0 991.5 -- 56
2020-07-02 15:00:00 19.9 17 Noroeste 28 Oeste 0 991.4 -- 58
2020-07-02 14:00:00 19.8 10 Nordeste 28 Nordeste 0 991.5 -- 59
2020-07-02 13:00:00 18.6 15 Norte 28 Nordeste 0 991.4 -- 68
2020-07-02 12:00:00 18.2 14 Norte 24 Nordeste 0 991 -- 65
2020-07-02 11:00:00 17.1 10 Nordeste 22 Norte 0 990.7 -- 76
2020-07-02 10:00:00 16.2 6 Nordeste 11 Norte 0 990.2 -- 76
2020-07-02 09:00:00 15 5 Nordeste 11 Noroeste 0 989.7 -- 88
2020-07-02 08:00:00 14.4 8 Noroeste 13 Noroeste 0 989.3 -- 77
2020-07-02 07:00:00 14.7 8 Norte 11 Oeste 0 988.9 -- 78
2020-07-02 06:00:00 14.7 8 Norte 13 Norte 0 988.6 -- 82
2020-07-02 05:00:00 14.9 5 Norte 15 Norte 0 988.6 -- 82
2020-07-02 04:00:00 14.6 9 Norte 15 Norte 0 988.6 -- 88
2020-07-02 03:00:00 15 8 Norte 15 Norte 0 988.7 -- 91
2020-07-02 02:00:00 14.6 8 Norte 13 Noroeste 0 988.9 -- 97
2020-07-02 01:00:00 15.2 9 Noroeste 13 Noroeste 0 989 -- 95
2020-07-02 00:00:00 15.9 11 Noroeste 15 Noroeste 0 988.9 -- 87
2020-07-01 23:00:00 16 10 Noroeste 18 Oeste 0 988.5 -- 91
2020-07-01 22:00:00 16.6 12 Oeste 28 Oeste 0 987.8 -- 85
2020-07-01 21:00:00 18.8 18 Oeste 26 Oeste 0 987.6 -- 70
2020-07-01 20:00:00 19.8 17 Oeste 30 Oeste 0 987.6 -- 69
2020-07-01 19:00:00 20.6 18 Oeste 26 Oeste 0 987.4 -- 66
2020-07-01 18:00:00 21.6 14 Oeste 30 Sudoeste 0 987.7 -- 63
2020-07-01 17:00:00 21.2 10 Oeste 24 Oeste 0 987.9 -- 63
2020-07-01 16:00:00 20.6 16 Oeste 28 Oeste 0 988.1 -- 62
2020-07-01 15:00:00 20.2 15 Sudoeste 32 Sudoeste 0 988.1 -- 64
2020-07-01 14:00:00 19.5 17 Oeste 32 Oeste 0 987.7 -- 74
2020-07-01 13:00:00 18.3 22 Oeste 32 Oeste 0 987.9 -- 84
2020-07-01 12:00:00 17.4 14 Oeste 24 Oeste 0 987.4 -- 100
2020-07-01 11:00:00 18.7 9 Sudoeste 15 Noroeste 0 986.7 -- 95
2020-07-01 10:00:00 17.4 9 Oeste 21 Noroeste 0 986.5 -- 100
2020-07-01 09:00:00 17.2 12 Noroeste 21 Noroeste 0 986.1 -- 100
2020-07-01 08:00:00 17.1 6 Noroeste 11 Norte 0 985.6 -- 100
2020-07-01 07:00:00 16.9 3 Sur 9 Noroeste 0 985.2 -- 100
2020-07-01 06:00:00 16.9 0 Calma 13 Sudoeste 0 985 -- 100
2020-07-01 05:00:00 16.6 10 Oeste 15 Oeste 0 984.9 -- 100
2020-07-01 04:00:00 16.7 8 Sudoeste 18 Oeste 0 984.8 -- 100
2020-07-01 03:00:00 16.5 13 Oeste 24 Oeste 0 984.7 -- 100
2020-07-01 02:00:00 16.8 15 Oeste 22 Oeste 0 984.9 -- 100
2020-07-01 01:00:00 18 10 Oeste 22 Oeste 0 984.9 -- 100
2020-07-01 00:00:00 20.2 10 Noroeste 24 Noroeste 0 984.6 -- 83
2020-06-30 23:00:00 21.4 16 Noroeste 22 Noroeste 0 984.4 -- 79
2020-06-30 22:00:00 20.7 13 Oeste 30 Oeste 0 983.8 -- 91
2020-06-30 21:00:00 21.7 20 Oeste 33 Oeste 0 983.2 -- 81
2020-06-30 20:00:00 22.8 25 Oeste 37 Oeste 0 982.6 -- 75
2020-06-30 19:00:00 23.6 27 Oeste 35 Oeste 0 982.7 -- 72
2020-06-30 18:00:00 24.4 27 Oeste 39 Sudoeste 0 982.7 -- 70
2020-06-30 17:00:00 25.3 24 Oeste 35 Oeste 0 982.8 -- 67
2020-06-30 16:00:00 26.7 21 Oeste 32 Sudoeste 0 982.9 -- 63
2020-06-30 15:00:00 27.7 13 Oeste 26 Sudoeste 0 983 -- 59
2020-06-30 14:00:00 27.5 11 Nordeste 21 Nordeste 0 983.2 -- 62
2020-06-30 13:00:00 26.8 10 Nordeste 21 Nordeste 0 983.4 -- 64
2020-06-30 12:00:00 24.4 7 Nordeste 15 Norte 0 983.4 -- 74
2020-06-30 11:00:00 22.5 10 Nordeste 17 Nordeste 0 983.7 -- 78
2020-06-30 10:00:00 20.6 5 Nordeste 11 Nordeste 0 984 -- 87
2020-06-30 09:00:00 18.7 4 Nordeste 11 Nordeste 0 983.9 -- 98
2020-06-30 08:00:00 17.9 3 Norte 17 Norte 0 983.8 -- 97
2020-06-30 07:00:00 17 8 Norte 15 Norte 0 983.7 -- 100
2020-06-30 06:00:00 16.5 9 Norte 17 Norte 0 983.8 -- 100
2020-06-30 05:00:00 17.1 11 Nordeste 22 Norte 0 984.2 -- 98
2020-06-30 04:00:00 18.2 14 Norte 22 Norte 0 984.7 -- 93
2020-06-30 03:00:00 17.5 4 Nordeste 18 Norte 0 985.6 -- 97
2020-06-30 02:00:00 17.8 13 Norte 24 Norte 0 986.2 -- 94
2020-06-30 01:00:00 18.3 14 Nordeste 22 Nordeste 0 986.7 -- 88
2020-06-30 00:00:00 19.3 14 Norte 32 Norte 0 986.9 -- 75
2020-06-29 23:00:00 20.2 21 Norte 42 Norte 0 986.7 -- 63
2020-06-29 22:00:00 21.4 24 Norte 42 Norte 0 986.5 -- 57
2020-06-29 21:00:00 23.9 23 Norte 35 Norte 0 986.6 -- 52
2020-06-29 20:00:00 25.2 22 Norte 35 Norte 0 986.6 -- 46
2020-06-29 19:00:00 25.9 23 Norte 35 Noroeste 0 986.8 -- 47
2020-06-29 18:00:00 26.1 23 Norte 35 Norte 0 987.3 -- 49
2020-06-29 17:00:00 25.6 20 Norte 32 Norte 0 987.9 -- 50
2020-06-29 16:00:00 25 17 Norte 30 Norte 0 988.4 -- 55
2020-06-29 15:00:00 24.1 12 Norte 22 Norte 0 988.9 -- 66
2020-06-29 14:00:00 23.8 11 Nordeste 21 Nordeste 0 989.5 -- 70
2020-06-29 13:00:00 23 10 Nordeste 18 Norte 0 989.9 -- 76
2020-06-29 12:00:00 21.6 8 Nordeste 18 Este 0 989.9 -- 79
2020-06-29 11:00:00 20.3 8 Nordeste 17 Nordeste 0 989.8 -- 86
2020-06-29 10:00:00 18.4 8 Nordeste 18 Nordeste 0 989.8 -- 96
2020-06-29 09:00:00 17.3 5 Nordeste 15 Nordeste 0 989.7 -- 100
2020-06-29 08:00:00 15.3 9 Nordeste 18 Norte 0 989.6 -- 100
2020-06-29 07:00:00 14.5 6 Norte 15 Norte 0 989.8 -- 100
2020-06-29 06:00:00 14.5 6 Norte 13 Norte 0 989.9 -- 100
2020-06-29 05:00:00 15.1 6 Norte 15 Norte 0 990 -- 100
2020-06-29 04:00:00 16 10 Norte 21 Nordeste 0 990.2 -- 100
2020-06-29 03:00:00 16.9 10 Norte 22 Norte 0 990.2 -- 100
2020-06-29 02:00:00 17.4 8 Norte 13 Norte 0 990.6 -- 100
2020-06-29 01:00:00 17 5 Sudoeste 11 Norte 0 990.9 -- 100
2020-06-29 00:00:00 17.3 4 Noroeste 17 Oeste 0 991.3 -- 100
2020-06-28 23:00:00 17.6 14 Oeste 18 Oeste 0 991 -- 100
2020-06-28 22:00:00 18.2 8 Sudoeste 18 Oeste 0 990.8 -- 100
2020-06-28 21:00:00 19.4 10 Oeste 17 Oeste 0 991 -- 100
2020-06-28 20:00:00 20.3 6 Noroeste 15 Nordeste 0 990.9 -- 99
2020-06-28 19:00:00 20.6 6 Nordeste 17 Norte 0 991.1 -- 100
2020-06-28 18:00:00 21.5 3 Norte 21 Oeste 0 991.3 -- 96
2020-06-28 17:00:00 20.9 11 Oeste 17 Oeste 0 991.2 -- 99
2020-06-28 16:00:00 19.5 10 Oeste 17 Sudoeste 0 991.4 -0.3 100
2020-06-28 15:00:00 19 7 Oeste 15 Sudoeste 0 991.6 -- 100
2020-06-28 14:00:00 18.5 6 Sur 11 Sur 0 991.8 -- 100
2020-06-28 13:00:00 17.5 7 Sur 15 Sur 0 991.7 -- 100
2020-06-28 12:00:00 17.2 11 Sur 18 Sur 0 991.5 -- 100
2020-06-28 11:00:00 16.7 10 Sur 18 Sur 0 991.5 -- 100
2020-06-28 10:00:00 16 12 Sur 17 Sur 0 991.4 -- 100
2020-06-28 09:00:00 15.6 10 Sur 17 Sudoeste 0 990.8 -- 100
2020-06-28 08:00:00 15.4 12 Sur 17 Sur 0 990.5 -- 100
2020-06-28 07:00:00 15.4 9 Sur 13 Sur 0 990.2 -- 100
2020-06-28 06:00:00 14.6 5 Sudoeste 8 Oeste 0 990.3 -- 100
2020-06-28 05:00:00 15.3 5 Sudoeste 11 Sudoeste 0 990.5 -- 100
2020-06-28 04:00:00 15.2 7 Sudoeste 9 Sudoeste 0 990.3 -- 100
2020-06-28 03:00:00 15.6 8 Sudoeste -- -- 0 990.4 -- 100
2020-06-28 02:00:00 16.1 8 Sur 9 Sur 0 990.6 -- 100
2020-06-28 01:00:00 16.1 4 Sur 8 Sur 0 990.7 -- 100
2020-06-28 00:00:00 16.1 3 Sudeste 18 Oeste 0 990.8 -- 100
2020-06-27 23:00:00 16.4 15 Oeste 22 Oeste 0 990.4 -- 100
2020-06-27 22:00:00 16.8 12 Oeste 21 Oeste 0.1 989.9 -- 100
2020-06-27 21:00:00 17.1 9 Oeste 18 Sudoeste 0.2 989.8 -- 100
2020-06-27 20:00:00 17.7 12 Sudoeste 22 Oeste 0 989.5 -- 100
2020-06-27 19:00:00 18.4 11 Oeste 22 Oeste 0 989.3 -- 100
2020-06-27 18:00:00 17.7 16 Sudoeste 24 Oeste 0 989.3 -- 100
2020-06-27 17:00:00 17.6 13 Sudoeste 22 Sudoeste 0 989.2 -- 100
2020-06-27 16:00:00 17.6 14 Sudoeste 22 Sudoeste 0.5 989.3 -- 100
2020-06-27 15:00:00 17.9 13 Sudoeste 26 Sudoeste 0 989.1 -- 100
2020-06-27 14:00:00 17.7 13 Sur 24 Sur 0.9 989.2 -- 100
2020-06-27 13:00:00 17.5 12 Sur 18 Sudoeste 0 989 -- 100
2020-06-27 12:00:00 17 10 Sur 21 Sur 0 988.6 -- 100
2020-06-27 11:00:00 16.6 12 Sur 26 Sur 0.6 988.3 -- 100
2020-06-27 10:00:00 16.2 13 Sur 22 Sur 0.1 987.9 -- 100
2020-06-27 09:00:00 16.3 10 Sur 21 Sur 0.7 987.5 -- 100
2020-06-27 08:00:00 16.4 7 Sur 11 Sur 0 987.1 -- 100
2020-06-27 07:00:00 16.1 4 Sudoeste 11 Oeste 0.3 987 -- 100
2020-06-27 06:00:00 15.9 8 Sudoeste 13 Sur 0.3 987 -- 100
2020-06-27 05:00:00 16.1 7 Sur 13 Sur 0.1 986.9 -- 100
2020-06-27 04:00:00 16.1 11 Sur 17 Sur 0.7 987.1 -- 100
2020-06-27 03:00:00 15.9 9 Sur 15 Sur 0 987.1 -- 100
2020-06-27 02:00:00 15.8 6 Sur 17 Sur 0 987.3 -- 100
2020-06-27 01:00:00 15.7 10 Sur 18 Sur 0.8 987.2 -- 100
2020-06-27 00:00:00 15.5 10 Sur 17 Sur 0.7 987.2 -- 100
2020-06-26 23:00:00 15.4 11 Sur 24 Sudeste 0 986.8 -- 100
2020-06-26 22:00:00 15.3 10 Sur 22 Sur 0 986.5 -- 100
2020-06-26 21:00:00 15.4 11 Sur 22 Sudeste 0 986.7 -- 100
2020-06-26 20:00:00 15.7 12 Sur 21 Sur 0.3 986.5 -- 100
2020-06-26 19:00:00 16.1 9 Sur 21 Sur 0.4 986.5 -- 100
2020-06-26 18:00:00 17.9 13 Sur 24 Sur 0 986.6 -- 73
2020-06-26 17:00:00 17 8 Sur 26 Sudoeste 0 986.7 -- 85
2020-06-26 16:00:00 20.1 14 Sudoeste 24 Sur 0 986.8 -- 52
2020-06-26 15:00:00 20.1 11 Oeste 26 Sur 0 986.9 -- 66
2020-06-26 14:00:00 20 11 Sur 26 Oeste 0 986.9 -- 74
2020-06-26 13:00:00 18.6 14 Oeste 26 Sudoeste 0 987.2 -- 83
2020-06-26 12:00:00 18.4 15 Oeste 22 Oeste 0 987 -- 82
2020-06-26 11:00:00 17.2 11 Sudoeste 17 Sudoeste 0 986.8 -- 88
2020-06-26 10:00:00 16 10 Sudoeste 15 Sudoeste 0 987 -- 97
2020-06-26 09:00:00 15.2 8 Sudoeste 9 Sur 0 986.8 -- 100
2020-06-26 08:00:00 14.6 4 Sur 13 Oeste 0 986.5 -- 100
2020-06-26 07:00:00 14.9 8 Oeste 15 Oeste 0 986.7 -- 100
2020-06-26 06:00:00 14.7 9 Oeste 15 Oeste 0 986.5 -- 100
2020-06-26 05:00:00 14.3 4 Sudoeste 13 Sudoeste 0 986.6 -- 100
2020-06-26 04:00:00 13.9 3 Noroeste 9 Oeste 0 986.5 -- 100
2020-06-26 03:00:00 13.8 4 Oeste 8 Oeste 0 986.9 -- 100
2020-06-26 02:00:00 13.8 4 Oeste 9 Oeste 0 987.1 -- 100
2020-06-26 01:00:00 14.3 6 Oeste 9 Sur 0 987.3 -- 100
2020-06-26 00:00:00 14.8 6 Sur 15 Sudoeste 0 987.7 -- 100
2020-06-25 23:00:00 15.1 5 Sudoeste 22 Sudoeste 0 987.6 -- 100
2020-06-25 22:00:00 15.8 17 Sudoeste 26 Sudoeste 0 987.3 -- 100
2020-06-25 21:00:00 16.7 10 Oeste 26 Oeste 0 987.1 -- 97
2020-06-25 20:00:00 17.2 19 Oeste 30 Oeste 0 986.8 -- 94
2020-06-25 19:00:00 17.7 20 Oeste 33 Oeste 0 986.6 -- 91
2020-06-25 18:00:00 18.4 20 Oeste 32 Oeste 0 986.7 -- 89
2020-06-25 17:00:00 18.6 18 Oeste 26 Sudoeste 0 986.9 -- 91
2020-06-25 16:00:00 19.1 7 Oeste 13 Oeste 0 986.8 -- 91
2020-06-25 15:00:00 18.9 6 Nordeste 18 Oeste 0 986.8 -- 97
2020-06-25 14:00:00 17.8 13 Oeste 21 Noroeste 0 987.4 -- 100
2020-06-25 13:00:00 17.4 10 Oeste 17 Oeste 0 987.2 -- 100
2020-06-25 12:00:00 17.8 4 Norte 11 Nordeste 0 986.7 -- 100
2020-06-25 11:00:00 16.7 6 Nordeste 13 Nordeste 0 986.7 -- 100
2020-06-25 10:00:00 16 7 Nordeste 11 Nordeste 0 986.3 -- 100
2020-06-25 09:00:00 15.3 2 Nordeste 9 Nordeste 0 986.1 -- 100
2020-06-25 08:00:00 15.2 6 Nordeste 13 Nordeste 0 986 -- 100
2020-06-25 07:00:00 15.8 5 Nordeste 11 Oeste 0 985.9 -- 100
2020-06-25 06:00:00 15.6 10 Oeste 15 Oeste 0 986 -- 100
2020-06-25 05:00:00 15.9 9 Oeste 13 Oeste 0 986.1 -- 100
2020-06-25 04:00:00 16.3 3 Norte 8 Sudoeste 0 986.3 -- 100
2020-06-25 03:00:00 16.4 4 Sur 8 Sudoeste 0 986.2 -- 100
2020-06-25 02:00:00 16.6 3 Nordeste 9 Oeste 0 986.3 -- 100
2020-06-25 01:00:00 15.9 3 Norte 15 Oeste 0 987 -- 100
2020-06-25 00:00:00 15.6 9 Oeste 21 Sudoeste 0 987.2 -- 100
2020-06-24 23:00:00 16 14 Oeste 32 Oeste 0 987 -- 100
2020-06-24 22:00:00 16.5 15 Oeste 24 Sudoeste 0 986.7 -- 100
2020-06-24 21:00:00 17.3 15 Oeste 22 Oeste 0 986.9 -- 100
2020-06-24 20:00:00 17.8 16 Oeste 24 Oeste 0 986.5 -- 100
2020-06-24 19:00:00 18.3 15 Oeste 22 Oeste 0 986.2 -- 98
2020-06-24 18:00:00 19 14 Oeste 22 Oeste 0 986.2 -- 96
2020-06-24 17:00:00 18.8 14 Sudoeste 22 Sudoeste 0 986.5 -- 98
2020-06-24 16:00:00 18.7 14 Oeste 21 Oeste 0 986.5 -- 100
2020-06-24 15:00:00 18.3 12 Sudoeste 18 Sudoeste 0 986.6 -- 100
2020-06-24 14:00:00 17.9 10 Sudoeste 17 Oeste 0 986.7 -- 100
2020-06-24 13:00:00 16.9 12 Sudoeste 18 Sudoeste 0 986.6 -- 100
2020-06-24 12:00:00 17.2 9 Oeste 13 Sudoeste 0 986.2 -- 100
2020-06-24 11:00:00 16.8 8 Oeste 11 Oeste 0 985.8 -- 100
2020-06-24 10:00:00 16.9 4 Este 8 Este 0 985.5 -- 100
2020-06-24 09:00:00 16.4 2 Norte 8 Oeste 0 985.4 -- 100
2020-06-24 08:00:00 16.2 3 Nordeste 8 Nordeste 0 985.2 -- 100
2020-06-24 07:00:00 16.2 4 Sudoeste 8 Oeste 0 985.1 -- 100
2020-06-24 06:00:00 16.2 4 Norte 8 Norte 0 985 -- 100
2020-06-24 05:00:00 16.3 0 Calma 9 Oeste 0 985.2 -- 100
2020-06-24 04:00:00 16.2 4 Norte 9 Oeste 0 985.3 -- 100
2020-06-24 03:00:00 16.1 4 Oeste 8 Noroeste 0 985.2 -- 100
2020-06-24 02:00:00 15.9 5 Noroeste 11 Norte 0 985.2 -- 100
2020-06-24 01:00:00 16 3 Norte 11 Oeste 0 985.2 -- 100
2020-06-24 00:00:00 16.7 6 Oeste 13 Sudoeste 0 985.3 -- 100
2020-06-23 23:00:00 17.2 10 Oeste 15 Oeste 0 985 -- 100
2020-06-23 22:00:00 19.4 13 Oeste 26 Oeste 0 984.7 -- 93
2020-06-23 21:00:00 23.2 13 Oeste 18 Sudoeste 0 984.4 -- 70
2020-06-23 20:00:00 25.6 9 Oeste 21 Oeste 0 984 -- 53
2020-06-23 19:00:00 27 12 Oeste 26 Oeste 0 984 -- 51
2020-06-23 18:00:00 26.5 14 Oeste 26 Oeste 0 984.2 -- 53
2020-06-23 17:00:00 26.5 18 Oeste 35 Oeste 0 984.4 -- 57
2020-06-23 16:00:00 26.8 25 Oeste 32 Oeste 0 984.5 -- 59
2020-06-23 15:00:00 29 18 Oeste 24 Sudoeste 0 984.6 -- 55
2020-06-23 14:00:00 29.7 13 Oeste 22 Sudoeste 0 984.7 -- 52
2020-06-23 13:00:00 29.9 4 Nordeste 13 Oeste 0 984.8 -- 59
2020-06-23 12:00:00 27.7 11 Oeste 17 Sudoeste 0 984.9 -- 56
2020-06-23 11:00:00 26.3 10 Sudoeste 15 Sur 0 985 -- 62
2020-06-23 10:00:00 23.8 10 Sur 21 Sur 0 984.9 -- 76
2020-06-23 09:00:00 21.9 13 Sur 21 Sur 0 984.7 -- 81
2020-06-23 08:00:00 21.6 10 Sudoeste 17 Sur 0 984.7 -- 78
2020-06-23 07:00:00 21 7 Sudoeste 13 Sudoeste 0 984.7 -- 83
2020-06-23 06:00:00 21.2 8 Sudoeste 13 Sudoeste 0 984.5 -- 77
2020-06-23 05:00:00 21.5 5 Sudeste 13 Norte 0 984.8 -- 71
2020-06-23 04:00:00 21.8 5 Norte 8 Norte 0 985.3 -- 70
2020-06-23 03:00:00 22.3 4 Noroeste 8 Oeste 0 985.8 -- 66
2020-06-23 02:00:00 22.6 3 Norte 9 Norte 0 986.3 -- 78
2020-06-23 01:00:00 23.5 8 Norte 13 Norte 0 986.8 -- 78
2020-06-23 00:00:00 23.9 6 Norte 15 Norte 0 987.3 -- 75
2020-06-22 23:00:00 24.2 10 Norte 17 Norte 0 987.2 -- 75
2020-06-22 22:00:00 25.4 9 Norte 15 Norte 0 987 -- 70
2020-06-22 21:00:00 27.1 6 Oeste 18 Oeste 0 987.2 -- 60
2020-06-22 20:00:00 28.2 12 Oeste 21 Oeste 0 987.4 -- 56
2020-06-22 19:00:00 29 14 Oeste 22 Oeste 0 988 -- 55
2020-06-22 18:00:00 29.8 9 Oeste 21 Oeste 0 988.4 -- 54
2020-06-22 17:00:00 28.8 13 Oeste 26 Sudoeste 0 989.1 -- 57
2020-06-22 16:00:00 30 7 Nordeste 15 Nordeste 0 989.8 -- 54
2020-06-22 15:00:00 29 8 Nordeste 17 Nordeste 0 990.4 -- 54
2020-06-22 14:00:00 27.5 6 Norte 15 Nordeste 0 991.1 -- 56
2020-06-22 13:00:00 26.6 5 Nordeste 11 Nordeste 0 991.5 -- 66
2020-06-22 12:00:00 23.9 4 Sudeste 18 Sur 0 991.7 -- 71
2020-06-22 11:00:00 21 9 Sur 17 Sur 0 991.9 -- 86
2020-06-22 10:00:00 18.5 8 Sur 13 Sur 0 992 -- 100
2020-06-22 09:00:00 15.7 4 Sur 5 Sudoeste 0 992.2 -- 100
2020-06-22 08:00:00 15 3 Norte 8 Nordeste 0 992.5 -- 100
2020-06-22 07:00:00 14.9 4 Noroeste 9 Norte 0 992.6 -- 100
2020-06-22 06:00:00 15.4 4 Noroeste 11 Norte 0 993 -- 100
2020-06-22 05:00:00 16 6 Norte 15 Norte 0 993.5 -- 100
2020-06-22 04:00:00 16.4 8 Norte 13 Norte 0 994.1 -- 100
2020-06-22 03:00:00 16.4 4 Norte 11 Norte 0 994.8 -- 100
2020-06-22 02:00:00 16.7 7 Nordeste 13 Norte 0 995.1 -- 100
2020-06-22 01:00:00 16.7 9 Norte 13 Norte 0 995.6 -- 100
2020-06-22 00:00:00 17.3 10 Norte 13 Norte 0 996 -- 100
2020-06-21 23:00:00 17.6 7 Noroeste 9 Noroeste 0 995.9 -- 100
2020-06-21 22:00:00 19.2 5 Noroeste 18 Noroeste 0 995.6 -- 97
2020-06-21 21:00:00 19.9 8 Norte 21 Norte 0 995.5 -- 92
2020-06-21 20:00:00 20.5 11 Norte 18 Noroeste 0 995.7 -- 90
2020-06-21 19:00:00 20.5 9 Oeste 21 Noroeste 0 996.1 -- 88
2020-06-21 18:00:00 21.1 11 Noroeste 24 Oeste 0 996.3 -- 81
2020-06-21 17:00:00 21.6 17 Oeste 22 Sudoeste 0 996.6 -- 76
2020-06-21 16:00:00 21.2 14 Sudoeste 21 Oeste 0 996.9 -- 78
2020-06-21 15:00:00 19.3 12 Oeste 21 Oeste 0 997.2 -- 88
2020-06-21 14:00:00 19 13 Oeste 21 Oeste 0 997.3 -- 87
2020-06-21 13:00:00 19.3 8 Oeste 13 Oeste 0 996.9 -- 88
2020-06-21 12:00:00 18.5 8 Sudoeste 13 Sur 0 996.6 -- 91
2020-06-21 11:00:00 18.1 5 Sudeste 11 Sur 0 996.5 -- 100
2020-06-21 10:00:00 17.3 7 Sur 13 Sudeste 0 996.4 -- 100
2020-06-21 09:00:00 16.5 4 Sudeste 15 Sudoeste 0.3 996.2 -- 100
2020-06-21 08:00:00 15.6 6 Sur 11 Sur 0.2 995.7 -- 100
2020-06-21 07:00:00 15.7 5 Sudoeste 11 Sur 0.3 995.1 -- 100
2020-06-21 06:00:00 15.6 5 Sur 13 Sur 0 995 -- 100
2020-06-21 05:00:00 16 9 Sur 11 Sur 0 995.1 -- 100
2020-06-21 04:00:00 16.2 8 Sur 13 Sur 0 995 -- 99
2020-06-21 03:00:00 16.6 8 Sur 11 Sur 0 995.2 -- 95
2020-06-21 02:00:00 16.6 6 Sur 9 Sur 0 995.6 -- 97
2020-06-21 01:00:00 16.5 0 Calma 5 Sudeste 0 995.7 -- 98
2020-06-21 00:00:00 16.7 2 Sudoeste 9 Oeste 0 995.6 -- 98
2020-06-20 23:00:00 17 3 Noroeste 8 Oeste 0 995.4 -- 89
2020-06-20 22:00:00 17.1 6 Oeste 13 Oeste 0 994.8 -- 86
2020-06-20 21:00:00 18.6 12 Oeste 18 Oeste 0 994.8 -- 72
2020-06-20 20:00:00 19.4 11 Oeste 32 Oeste 0 994.5 -- 65
2020-06-20 19:00:00 20 22 Oeste 30 Oeste 0 994.3 -- 60
2020-06-20 18:00:00 20.1 20 Oeste 33 Sudoeste 0 994.5 -- 63
2020-06-20 17:00:00 20.3 22 Oeste 37 Oeste 0 994.4 -- 63
2020-06-20 16:00:00 20.7 17 Oeste 33 Oeste 0 994 -- 59
2020-06-20 15:00:00 20.3 18 Oeste 30 Oeste 0 994.1 -- 63
2020-06-20 14:00:00 20.5 15 Oeste 26 Sudoeste 0 994.2 -- 59
2020-06-20 13:00:00 19.8 11 Oeste 21 Oeste 0 994 -- 71
2020-06-20 12:00:00 19.2 5 Sudoeste 15 Sur 0 993.8 -- 75
2020-06-20 11:00:00 19.3 7 Sur 15 Sur 0 993.5 -- 72
2020-06-20 10:00:00 17.3 9 Sur 15 Sur 0 993.2 -- 83
2020-06-20 09:00:00 15.8 9 Sur 13 Sur 0 992.9 -- 92
2020-06-20 08:00:00 16 6 Sur 9 Sur 0 992.6 -- 88
2020-06-20 07:00:00 14.2 8 Sudoeste 13 Sudoeste 0 992.5 -- 97
2020-06-20 06:00:00 14.2 11 Sudoeste 15 Sudoeste 0 992.3 -- 97
2020-06-20 05:00:00 14.2 10 Sudoeste 15 Sudoeste 0 992.3 -- 98
2020-06-20 04:00:00 14.2 12 Sudoeste 15 Sur 0 992.7 -- 99
2020-06-20 03:00:00 14.7 0 Calma 8 Noroeste 0 992.8 -- 96
2020-06-20 02:00:00 13.3 3 Noroeste 5 Noroeste 0 992.9 -- 100
2020-06-20 01:00:00 13.9 5 Norte 8 Norte 0 992.9 -- 99
2020-06-20 00:00:00 14.3 5 Noroeste 15 Oeste 0 993 -- 97
2020-06-19 23:00:00 15 11 Oeste 15 Oeste 0 992.6 -- 93
2020-06-19 22:00:00 16.2 9 Oeste 15 Oeste 0 992.4 -- 84
2020-06-19 21:00:00 17.6 13 Oeste 26 Oeste 0 992 -- 72
2020-06-19 20:00:00 18.2 17 Oeste 26 Oeste 0 991.8 -- 65
2020-06-19 19:00:00 18.6 15 Oeste 26 Oeste 0 991.5 -- 62
2020-06-19 18:00:00 18.8 14 Oeste 30 Oeste 0 991.4 -- 61
2020-06-19 17:00:00 18.8 20 Oeste 30 Oeste 0 991.3 -- 58
2020-06-19 16:00:00 19.4 18 Oeste 32 Oeste 0 991.2 -- 58
2020-06-19 15:00:00 19.4 18 Oeste 30 Oeste 0 991.1 -- 56
2020-06-19 14:00:00 19.3 14 Oeste 26 Oeste 0 991.1 -- 55
2020-06-19 13:00:00 19.1 5 Sudoeste 15 Sudoeste 0 990.8 -- 58
2020-06-19 12:00:00 18.9 8 Nordeste 17 Nordeste 0 990.8 -- 59
2020-06-19 11:00:00 17.8 10 Nordeste 15 Nordeste 0 990.7 -- 65
2020-06-19 10:00:00 16 6 Este 15 Nordeste 0 990.4 -- 83
2020-06-19 09:00:00 14.5 5 Nordeste 11 Norte 0 990.1 -- 89
2020-06-19 08:00:00 12.3 3 Norte 11 Norte 0 989.7 -- 100
2020-06-19 07:00:00 10.3 5 Noroeste 9 Noroeste 0 989.2 -- 100
2020-06-19 06:00:00 10.5 4 Oeste 8 Oeste 0 988.9 -- 100
2020-06-19 05:00:00 10.8 4 Noroeste 8 Noroeste 0 988.9 -- 100
2020-06-19 04:00:00 11 6 Noroeste 9 Noroeste 0 989.1 -- 100
2020-06-19 03:00:00 11.8 4 Noroeste 9 Noroeste 0 989.2 -- 100
2020-06-19 02:00:00 12.6 5 Oeste 15 Oeste 0 989.4 -- 100
2020-06-19 01:00:00 13.3 11 Oeste 18 Oeste 0 989.5 -- 94
2020-06-19 00:00:00 13.9 14 Oeste 21 Oeste 0 989.5 -- 84
2020-06-18 23:00:00 14.1 13 Oeste 21 Oeste 0 989 -- 84
2020-06-18 22:00:00 15 10 Oeste 26 Oeste 0 988.4 -- 80
2020-06-18 21:00:00 16.9 15 Oeste 28 Oeste 0 988 -- 62
2020-06-18 20:00:00 17.9 13 Oeste 30 Oeste 0 987.6 -- 68
2020-06-18 19:00:00 18.2 16 Oeste 35 Oeste 0 987.5 -- 65
2020-06-18 18:00:00 18.5 19 Oeste 35 Sudoeste 0 987.4 -- 65
2020-06-18 17:00:00 18.7 22 Oeste 35 Oeste 0 987.5 -- 62
2020-06-18 16:00:00 18.7 19 Oeste 35 Oeste 0 987.6 -- 60
2020-06-18 15:00:00 18.7 21 Oeste 35 Oeste 0 987.6 -- 61
2020-06-18 14:00:00 18.5 19 Oeste 30 Oeste 0 987.4 -- 61
2020-06-18 13:00:00 17.6 14 Oeste 26 Sudoeste 0 987.4 -- 62
2020-06-18 12:00:00 19.5 10 Nordeste 17 Nordeste 0 987.2 -- 54
2020-06-18 11:00:00 18 8 Nordeste 18 Nordeste 0 987 -- 65
2020-06-18 10:00:00 15.7 4 Nordeste 13 Nordeste 0 986.8 -- 80
2020-06-18 09:00:00 14.9 5 Nordeste 9 Nordeste 0 986.5 -- 92
2020-06-18 08:00:00 12.2 0 Calma 4 Este 0 986.2 -- 100
2020-06-18 07:00:00 10.7 0 Calma 8 Norte 0 986.1 -- 100
2020-06-18 06:00:00 11.9 8 Norte 11 Norte 0 986 -- 100
2020-06-18 05:00:00 11.8 8 Norte 11 Norte 0 986.4 -- 100
2020-06-18 04:00:00 11.6 4 Norte 8 Noroeste 0 986.8 -- 100
2020-06-18 03:00:00 12.4 6 Oeste 8 Oeste 0 987.3 -- 100
2020-06-18 02:00:00 13.2 3 Oeste 22 Oeste 0 987.4 -- 100
2020-06-18 01:00:00 13.2 15 Oeste 21 Oeste 0 987.8 -- 100
2020-06-18 00:00:00 13.2 13 Oeste 18 Oeste 0 988 -- 99
2020-06-17 23:00:00 13.8 13 Oeste 18 Oeste 0 987.8 -- 95
2020-06-17 22:00:00 14.6 15 Oeste 33 Oeste 0 987.4 -- 90
2020-06-17 21:00:00 16.5 14 Oeste 22 Oeste 0 987.3 -- 74
2020-06-17 20:00:00 17.6 11 Oeste 18 Oeste 0 987.5 -- 66
2020-06-17 19:00:00 17.8 10 Oeste 30 Oeste 0 988 -- 64
2020-06-17 18:00:00 17.3 21 Oeste 32 Oeste 0 988.4 -- 67
2020-06-17 17:00:00 18.3 17 Oeste 30 Oeste 0 988.8 -- 66
2020-06-17 16:00:00 18.3 13 Oeste 28 Noroeste 0 989 -- 62
2020-06-17 15:00:00 18.1 8 Noroeste 21 Noroeste 0 989.3 -- 63
2020-06-17 14:00:00 17.2 10 Noroeste 18 Oeste 0 989.5 -- 66
2020-06-17 13:00:00 17.3 4 Este 11 Este 0 989.6 -- 64
2020-06-17 12:00:00 17.3 5 Este 13 Este 0 989.5 -- 65
2020-06-17 11:00:00 17 6 Este 17 Nordeste 0 989.6 -- 70
2020-06-17 10:00:00 16.9 9 Nordeste 17 Nordeste 0 989.8 -- 74
2020-06-17 09:00:00 15.4 6 Nordeste 9 Nordeste 0 989.7 -- 96
2020-06-17 08:00:00 12.5 3 Norte 8 Norte 0 989.7 -- 100
2020-06-17 07:00:00 12.5 5 Norte 8 Norte 0 989.5 -- 100
2020-06-17 06:00:00 13.1 5 Oeste 8 Sudoeste 0 989.5 -- 100
2020-06-17 05:00:00 13.2 0 Calma 8 Oeste 0 989.8 -- 100
2020-06-17 04:00:00 13.3 4 Oeste -- -- 0 990.3 -- 100
2020-06-17 03:00:00 13.3 2 Oeste 5 Noroeste 0 990.8 -- 98
2020-06-17 02:00:00 13.4 4 Oeste 11 Noroeste 0 991.3 -- 94
2020-06-17 01:00:00 13.7 6 Oeste 13 Noroeste 0 991.7 -- 94
2020-06-17 00:00:00 13.8 4 Oeste 9 Oeste 0 992.1 -- 99
2020-06-16 23:00:00 14.1 8 Noroeste 18 Noroeste 0 992 -- 95
2020-06-16 22:00:00 14.6 12 Oeste 24 Oeste 0 991.5 -- 87
2020-06-16 21:00:00 15.4 7 Noroeste 18 Noroeste 0 991.2 -- 79
2020-06-16 20:00:00 15.7 3 Noroeste 26 Sudoeste 0 991.3 -- 78
2020-06-16 19:00:00 18 15 Oeste 28 Oeste 0 991.2 -- 64
2020-06-16 18:00:00 18.5 19 Oeste 32 Oeste 0 991.4 -- 64
2020-06-16 17:00:00 18.6 14 Oeste 32 Oeste 0 991.5 -- 67
2020-06-16 16:00:00 17.5 21 Oeste 32 Oeste 0 991.9 -- 73
2020-06-16 15:00:00 18.3 18 Sudoeste 32 Sudoeste 0 992.1 -- 70
2020-06-16 14:00:00 16.9 11 Sudoeste 24 Sudoeste 0 992.3 -- 84
2020-06-16 13:00:00 14.6 11 Sudoeste 24 Oeste 0 992.2 -- 100
2020-06-16 12:00:00 15.7 13 Oeste 18 Oeste 0 991.8 -- 89
2020-06-16 11:00:00 15.7 5 Sudoeste 17 Oeste 0 991.5 -- 98
2020-06-16 10:00:00 15.3 5 Sur 11 Nordeste 0.1 991.4 -- 100
2020-06-16 09:00:00 13.9 2 Noroeste 11 Oeste 0.1 991.1 -- 100
2020-06-16 08:00:00 13.3 6 Sudoeste 11 Sur 2.8 991.1 -- 100
2020-06-16 07:00:00 13.3 10 Sur 18 Sur 0.5 990.6 -- 100
2020-06-16 06:00:00 14 12 Sur 22 Sur 0.7 990.7 -- 100
2020-06-16 05:00:00 14 8 Sur 17 Sur 0 991.1 -- 100
2020-06-16 04:00:00 14.2 10 Sur 15 Sur 0 991.5 -- 100
2020-06-16 03:00:00 14.3 7 Sur 13 Sur 0 992.2 -- 100
2020-06-16 02:00:00 14.5 7 Sur 9 Sur 0 992.6 -- 100
2020-06-16 01:00:00 14.8 6 Sudoeste 11 Sur 0 993 -- 100
2020-06-16 00:00:00 15 4 Sur 11 Sudoeste 0 993.2 -- 98
2020-06-15 23:00:00 15.7 6 Sudoeste 13 Sudoeste 0 993.1 -- 95
2020-06-15 22:00:00 16 9 Sudoeste 17 Sudoeste 0 993.1 -- 90
2020-06-15 21:00:00 16.5 9 Sudoeste 24 Oeste 0 993.2 -- 85
2020-06-15 20:00:00 17 16 Oeste 26 Sudoeste 0 993.2 -- 78
2020-06-15 19:00:00 17.5 15 Sudoeste 26 Sudoeste 0 993.4 -- 77
2020-06-15 18:00:00 17.2 17 Oeste 28 Oeste 0 993.5 -- 80
2020-06-15 17:00:00 17.6 15 Oeste 26 Oeste 0 993.7 -- 80
2020-06-15 16:00:00 17.6 16 Oeste 30 Oeste 0 993.8 -- 77
2020-06-15 15:00:00 17.6 17 Oeste 30 Oeste 0 994 -- 75
2020-06-15 14:00:00 18.2 16 Oeste 32 Sudoeste 0 994.2 -- 71
2020-06-15 13:00:00 18.5 13 Sudoeste 26 Sudoeste 0 993.7 -- 67
2020-06-15 12:00:00 17.2 12 Oeste 17 Oeste 0 993.8 -- 77
2020-06-15 11:00:00 16.3 10 Sur 17 Sudeste 0 993.5 -- 92
2020-06-15 10:00:00 15.8 8 Sur 13 Sur 0 993.4 -- 97
2020-06-15 09:00:00 13.4 5 Sur 13 Sur 0 993.1 -- 100
2020-06-15 08:00:00 13.2 8 Sur 13 Sudoeste 0 993.1 -- 100
2020-06-15 07:00:00 13 6 Sur 9 Sur 0 992.7 -- 100
2020-06-15 06:00:00 13.2 8 Sur 11 Sudoeste 0 992.7 -- 100
2020-06-15 05:00:00 13.6 8 Sudoeste 11 Sudoeste 0 992.6 -- 100
2020-06-15 04:00:00 14 5 Sur 13 Sur 0 992.7 -- 100
2020-06-15 03:00:00 14.2 8 Sur 11 Sur 0 992.8 -- 100
2020-06-15 02:00:00 14.5 8 Sudoeste 15 Sur 0 993.1 -- 100
2020-06-15 01:00:00 14.7 8 Sur 11 Sur 0 993 -- 100
2020-06-15 00:00:00 14.8 4 Sudoeste 9 Sur 0 993.1 -- 100
2020-06-14 23:00:00 15 5 Sudoeste 8 Sudoeste 0 993 -- 96
2020-06-14 22:00:00 15.3 7 Oeste 17 Sudoeste 0 992.7 -- 91
2020-06-14 21:00:00 15.8 9 Oeste 21 Oeste 0 992.9 -- 87
2020-06-14 20:00:00 16.7 13 Oeste 24 Oeste 0 992.5 -- 81
2020-06-14 19:00:00 17.2 9 Oeste 26 Sudoeste 0 992.4 -- 77
2020-06-14 18:00:00 16.8 14 Sudoeste 30 Sudoeste 0 992.3 -- 76
2020-06-14 17:00:00 16.9 18 Sudoeste 30 Oeste 0 992.2 -- 72
2020-06-14 16:00:00 17.4 21 Oeste 33 Sudoeste 0 992.1 -- 63
2020-06-14 15:00:00 16.7 15 Sudoeste 32 Oeste 0 992.2 -- 82
2020-06-14 14:00:00 16.9 18 Sudoeste 30 Oeste 0 992.1 -- 75
2020-06-14 13:00:00 16.4 17 Oeste 26 Sudoeste 0 991.9 -- 79
2020-06-14 12:00:00 15.2 8 Sur 15 Sur 0 991.7 -- 100
2020-06-14 11:00:00 13.6 10 Sur 17 Sur 0 991.4 -- 100
2020-06-14 10:00:00 12.8 11 Sur 15 Sur 0 991 -- 100
2020-06-14 09:00:00 12.4 10 Sudoeste 18 Sur 0.1 990.2 -- 100
2020-06-14 08:00:00 12.3 9 Oeste 18 Sur 0 989.6 -- 100
2020-06-14 07:00:00 12.6 11 Sur 13 Sudoeste 0 989.2 -- 100
2020-06-14 06:00:00 12.2 9 Sur 15 Sur 0 989.1 -- 100
2020-06-14 05:00:00 12.8 12 Sur 15 Sur 0 989.2 -- 100
2020-06-14 04:00:00 13.1 9 Sur 15 Sur 0 989.3 -- 100
2020-06-14 03:00:00 12.4 8 Sur 11 Sur 0 989.4 -- 100
2020-06-14 02:00:00 13.5 6 Sur 9 Sur 0 989.5 -- 99
2020-06-14 01:00:00 13.7 4 Sudoeste 9 Sudoeste 0 989.8 -- 98
2020-06-14 00:00:00 13.3 8 Sudoeste 11 Sudoeste 0 989.8 -- 100
2020-06-13 23:00:00 14.4 5 Sur 18 Sudoeste 0 989.4 -- 94
2020-06-13 22:00:00 14.8 11 Oeste 28 Oeste 0 989 -- 86
2020-06-13 21:00:00 15.9 14 Oeste 32 Oeste 0 988.6 -- 76
2020-06-13 20:00:00 17.1 14 Oeste 33 Oeste 0 988.2 -- 63
2020-06-13 19:00:00 17.2 14 Oeste 28 Oeste 0 988 -- 64
2020-06-13 18:00:00 16.1 17 Sudoeste 35 Oeste 0 987.8 -- 74
2020-06-13 17:00:00 17.4 22 Sudoeste 35 Oeste 0 987.4 -- 71
2020-06-13 16:00:00 16.5 23 Oeste 37 Sudoeste 0 987.1 -- 72
2020-06-13 15:00:00 16.9 18 Sudoeste 33 Sudoeste 0 986.8 -- 73
2020-06-13 14:00:00 17.4 21 Sudoeste 30 Oeste 0 986.6 -- 72
2020-06-13 13:00:00 15.6 17 Sudoeste 28 Sudoeste 0 986.3 -- 90
2020-06-13 12:00:00 14.9 10 Sudoeste 22 Sudoeste 0 985.8 -- 97
2020-06-13 11:00:00 13.5 9 Sudoeste 18 Sudoeste 0.7 985.3 -- 100
2020-06-13 10:00:00 12.5 9 Sur 18 Sur 0 984.6 -- 100
2020-06-13 09:00:00 12.1 13 Sur 21 Sur 1 984.3 -- 100
2020-06-13 08:00:00 11.8 13 Sur 18 Sur 0 983.9 -- 100
2020-06-13 07:00:00 11.7 11 Sur 17 Sur 0 983.4 -- 100
2020-06-13 06:00:00 11.6 11 Sur 17 Sur 0 983.1 -- 100
2020-06-13 05:00:00 11.6 10 Sur 13 Sur 0 982.8 -- 100
2020-06-13 04:00:00 11.7 6 Sur 13 Sur 0 982.6 -- 100
2020-06-13 03:00:00 11.9 9 Sur 13 Sur 0 982.7 -- 100
2020-06-13 02:00:00 11.7 7 Sudoeste 9 Sudoeste 0 982.6 -- 100
2020-06-13 01:00:00 12.4 5 Oeste 17 Oeste 0 982.4 -- 100
2020-06-13 00:00:00 12.8 13 Oeste 24 Oeste 0 982.2 -- 100
2020-06-12 23:00:00 12.9 14 Oeste 28 Oeste 0 981.6 -- 100
2020-06-12 22:00:00 13.4 12 Oeste 22 Noroeste 0 980.8 -- 100
2020-06-12 21:00:00 13.7 15 Oeste 24 Oeste 0 980.1 -- 100
2020-06-12 20:00:00 13.7 13 Oeste 30 Oeste 0 979.2 -- 100
2020-06-12 19:00:00 13.7 13 Oeste 32 Sudoeste 3.4 978.8 -- 100
2020-06-12 18:00:00 14.1 14 Oeste 30 Sudoeste 0 978.4 -- 100
2020-06-12 17:00:00 14.4 18 Oeste 26 Oeste 0.2 978 -- 94
2020-06-12 16:00:00 13.2 12 Oeste 30 Oeste 1.1 977.7 -- 100
2020-06-12 15:00:00 13 11 Oeste 35 Noroeste 1.5 977.4 -- 100
2020-06-12 14:00:00 14 20 Noroeste 42 Oeste 0.8 977 -- 97
2020-06-12 13:00:00 14.2 21 Oeste 41 Oeste 0 976.9 -- 98
2020-06-12 12:00:00 14 12 Oeste 28 Oeste 0 976.8 -- 100
2020-06-12 11:00:00 12.7 14 Oeste 24 Oeste 2.2 976.7 -- 100
2020-06-12 10:00:00 12.7 11 Oeste 24 Oeste 1.1 976.6 -- 100
2020-06-12 09:00:00 12.3 12 Oeste 24 Oeste 0 976.6 -- 100
2020-06-12 08:00:00 11.7 15 Oeste 22 Oeste 0 976.5 -- 100
2020-06-12 07:00:00 11.8 5 Oeste 26 Oeste 0 976.3 -- 100
2020-06-12 06:00:00 12.2 14 Noroeste 37 Oeste 0.1 976.1 -- 100
2020-06-12 05:00:00 12.5 21 Oeste 55 Oeste 0.3 975.7 -- 100
2020-06-12 04:00:00 12.7 16 Oeste 37 Oeste 0.1 976.1 -- 100
2020-06-12 03:00:00 12.8 14 Oeste 41 Oeste 0 976.6 -- 100
2020-06-12 02:00:00 12.6 21 Oeste 37 Oeste 0.5 977.2 -- 100
2020-06-12 01:00:00 12.6 17 Oeste 39 Oeste 0.4 977.8 -- 100
2020-06-12 00:00:00 12.2 18 Oeste 42 Oeste 1.1 978.2 -- 100
2020-06-11 23:00:00 12.3 13 Oeste 28 Oeste 0.2 978.6 -- 100
2020-06-11 22:00:00 11.9 18 Oeste 30 Oeste 1.3 978.9 -- 98
2020-06-11 21:00:00 13.2 17 Oeste 42 Oeste 0 979.2 -- 80
2020-06-11 20:00:00 13.7 22 Oeste 37 Noroeste 0 979.3 -- 76
2020-06-11 19:00:00 13.4 19 Noroeste 37 Noroeste 0 980 -- 74
2020-06-11 18:00:00 14.3 21 Noroeste 46 Oeste 0 980.4 -- 72
2020-06-11 17:00:00 15 30 Oeste 55 Noroeste 0 980.6 -- 65
2020-06-11 16:00:00 16.4 28 Noroeste 52 Noroeste 0 980.5 -- 62
2020-06-11 15:00:00 16 18 Noroeste 37 Noroeste 0 980.6 -- 62
2020-06-11 14:00:00 15.5 27 Oeste 41 Noroeste 0 981 -- 72
2020-06-11 13:00:00 14.6 9 Noroeste 26 Noroeste 0 981.5 -- 83
2020-06-11 12:00:00 13.2 16 Noroeste 33 Noroeste 0 981.5 -- 100
2020-06-11 11:00:00 13.7 11 Oeste 28 Oeste 0 981.3 -- 100
2020-06-11 10:00:00 13.4 13 Oeste 24 Norte 0 981.6 -- 100
2020-06-11 09:00:00 13.4 12 Oeste 28 Noroeste 0.2 981.8 -- 100
2020-06-11 08:00:00 12.1 9 Sur 15 Sur 1.7 982.1 -- 100
2020-06-11 07:00:00 11.9 8 Sur 13 Sur 1.1 982.7 -- 100
2020-06-11 06:00:00 11.7 6 Sur 15 Sur 0.7 983.2 -- 100
2020-06-11 05:00:00 11.6 10 Sur 15 Sur 0.3 983.9 -- 100
2020-06-11 04:00:00 12 9 Sudoeste 13 Sudoeste 0.3 984.6 -- 100
2020-06-11 03:00:00 13.4 10 Oeste 21 Sudoeste 0 985.4 -- 91
2020-06-11 02:00:00 12.9 4 Sur 13 Oeste 0 986 -- 86
2020-06-11 01:00:00 13.4 10 Oeste 17 Oeste 0 986.3 -- 86
2020-06-11 00:00:00 13.2 9 Sudoeste 30 Oeste 0 986.5 -- 94
2020-06-10 23:00:00 13.6 20 Oeste 30 Oeste 0 986.5 -- 91
2020-06-10 22:00:00 14.7 19 Oeste 30 Oeste 0 986.4 -- 84
2020-06-10 21:00:00 16.1 20 Oeste 37 Oeste 0 986.2 -- 74
2020-06-10 20:00:00 17.6 22 Sudoeste 37 Oeste 0 986.1 -- 69
2020-06-10 19:00:00 18.9 28 Sudoeste 39 Oeste 0 986.2 -- 63
2020-06-10 18:00:00 20.8 22 Sudoeste 37 Oeste 0 986.3 -- 56
2020-06-10 17:00:00 21.2 22 Oeste 33 Sudoeste 0 986.8 -- 51
2020-06-10 16:00:00 21.3 19 Oeste 30 Sudoeste 0 986.9 -- 54
2020-06-10 15:00:00 21.3 17 Sudoeste 30 Sudoeste 0 987.2 -- 52
2020-06-10 14:00:00 20.9 9 Noroeste 17 Noroeste 0 987.5 -- 53
2020-06-10 13:00:00 20.4 9 Nordeste 17 Nordeste 0 987.8 -- 53
2020-06-10 12:00:00 19.7 5 Este 13 Sudeste 0 988 -- 56
2020-06-10 11:00:00 17.3 6 Sudoeste 22 Este 0 988.1 -- 62
2020-06-10 10:00:00 16.3 7 Este 13 Este 0 988.3 -- 67
2020-06-10 09:00:00 14.8 5 Este 13 Este 0 988.3 -- 75
2020-06-10 08:00:00 11.2 3 Sudoeste 9 Norte 0 988.1 -- 90
2020-06-10 07:00:00 10 5 Norte 9 Norte 0 988.2 -- 96
2020-06-10 06:00:00 10.6 3 Sudoeste 8 Noroeste 0 988 -- 91
2020-06-10 05:00:00 10.9 5 Nordeste 11 Norte 0 988.1 -- 93
2020-06-10 04:00:00 11.7 7 Norte 11 Norte 0 988.4 -- 83
2020-06-10 03:00:00 11.6 5 Nordeste 15 Norte 0 988.7 -- 93
2020-06-10 02:00:00 12.8 11 Norte 21 Norte 0 989 -- 81
2020-06-10 01:00:00 13.9 10 Norte 30 Norte 0 989.2 -- 76
2020-06-10 00:00:00 14.7 19 Norte 33 Norte 0 989.3 -- 73